sensor_id;sensor_type;location;lat;lon;timestamp;pressure;altitude;pressure_sealevel;temperature;humidity
37848;BME280;23688;33.130;-117.188;2023-09-18T00:02:07;99405.72;;;19.22;100.00
37848;BME280;23688;33.130;-117.188;2023-09-18T00:04:33;99415.28;;;19.11;100.00
37848;BME280;23688;33.130;-117.188;2023-09-18T00:06:59;99415.25;;;19.00;100.00
37848;BME280;23688;33.130;-117.188;2023-09-18T00:09:25;99405.53;;;18.89;100.00
37848;BME280;23688;33.130;-117.188;2023-09-18T00:11:52;99421.28;;;18.86;100.00
37848;BME280;23688;33.130;-117.188;2023-09-18T00:14:18;99420.38;;;18.80;100.00
37848;BME280;23688;33.130;-117.188;2023-09-18T00:16:45;99408.91;;;18.74;100.00
37848;BME280;23688;33.130;-117.188;2023-09-18T00:19:11;99416.03;;;18.89;100.00
37848;BME280;23688;33.130;-117.188;2023-09-18T00:21:38;99412.53;;;18.88;100.00
37848;BME280;23688;33.130;-117.188;2023-09-18T00:24:04;99409.94;;;18.91;100.00
37848;BME280;23688;33.130;-117.188;2023-09-18T00:26:31;99406.44;;;18.94;100.00
37848;BME280;23688;33.130;-117.188;2023-09-18T00:28:57;99421.44;;;19.07;100.00
37848;BME280;23688;33.130;-117.188;2023-09-18T00:31:23;99417.16;;;19.31;100.00
37848;BME280;23688;33.130;-117.188;2023-09-18T00:33:49;99414.63;;;19.52;100.00
37848;BME280;23688;33.130;-117.188;2023-09-18T00:36:16;99423.41;;;19.57;100.00
37848;BME280;23688;33.130;-117.188;2023-09-18T00:38:42;99399.63;;;19.36;100.00
37848;BME280;23688;33.130;-117.188;2023-09-18T00:41:09;99419.00;;;19.47;100.00
37848;BME280;23688;33.130;-117.188;2023-09-18T00:43:35;99408.41;;;19.41;100.00
37848;BME280;23688;33.130;-117.188;2023-09-18T00:46:02;99420.59;;;19.17;100.00
37848;BME280;23688;33.130;-117.188;2023-09-18T00:48:29;99403.91;;;19.11;100.00
37848;BME280;23688;33.130;-117.188;2023-09-18T00:50:55;99417.09;;;19.18;100.00
37848;BME280;23688;33.130;-117.188;2023-09-18T00:53:23;99410.16;;;19.36;100.00
37848;BME280;23688;33.130;-117.188;2023-09-18T00:55:54;99410.25;;;19.54;100.00
37848;BME280;23688;33.130;-117.188;2023-09-18T00:58:22;99413.78;;;19.61;100.00
37848;BME280;23688;33.130;-117.188;2023-09-18T01:00:48;99398.81;;;19.46;100.00
37848;BME280;23688;33.130;-117.188;2023-09-18T01:03:18;99409.25;;;19.31;100.00
37848;BME280;23688;33.130;-117.188;2023-09-18T01:05:45;99411.94;;;19.40;100.00
37848;BME280;23688;33.130;-117.188;2023-09-18T01:08:11;99409.34;;;19.55;100.00
37848;BME280;23688;33.130;-117.188;2023-09-18T01:10:56;99397.06;;;19.54;100.00
37848;BME280;23688;33.130;-117.188;2023-09-18T01:13:31;99410.25;;;19.62;100.00
37848;BME280;23688;33.130;-117.188;2023-09-18T01:16:08;99415.50;;;19.60;100.00
37848;BME280;23688;33.130;-117.188;2023-09-18T01:18:36;99407.59;;;19.50;100.00
37848;BME280;23688;33.130;-117.188;2023-09-18T01:21:04;99412.88;;;19.51;100.00
37848;BME280;23688;33.130;-117.188;2023-09-18T01:23:30;99416.34;;;19.45;100.00
37848;BME280;23688;33.130;-117.188;2023-09-18T01:25:56;99415.47;;;19.39;100.00
37848;BME280;23688;33.130;-117.188;2023-09-18T01:28:22;99411.88;;;19.26;100.00
37848;BME280;23688;33.130;-117.188;2023-09-18T01:30:49;99408.41;;;19.35;100.00
37848;BME280;23688;33.130;-117.188;2023-09-18T01:33:15;99406.56;;;19.21;100.00
37848;BME280;23688;33.130;-117.188;2023-09-18T01:35:45;99412.75;;;19.25;100.00
37848;BME280;23688;33.130;-117.188;2023-09-18T01:38:12;99410.16;;;19.33;100.00
37848;BME280;23688;33.130;-117.188;2023-09-18T01:40:39;99405.69;;;19.15;100.00
37848;BME280;23688;33.130;-117.188;2023-09-18T01:43:06;99398.53;;;18.94;100.00
37848;BME280;23688;33.130;-117.188;2023-09-18T01:45:33;99420.50;;;18.99;100.00
37848;BME280;23688;33.130;-117.188;2023-09-18T01:47:59;99421.47;;;19.15;100.00
37848;BME280;23688;33.130;-117.188;2023-09-18T01:50:25;99418.81;;;19.07;100.00
37848;BME280;23688;33.130;-117.188;2023-09-18T01:52:52;99419.56;;;18.91;100.00
37848;BME280;23688;33.130;-117.188;2023-09-18T01:55:18;99423.91;;;18.83;100.00
37848;BME280;23688;33.130;-117.188;2023-09-18T01:57:44;99428.19;;;18.74;100.00
37848;BME280;23688;33.130;-117.188;2023-09-18T02:00:11;99422.97;;;18.76;100.00
37848;BME280;23688;33.130;-117.188;2023-09-18T02:02:41;99428.16;;;18.70;100.00
37848;BME280;23688;33.130;-117.188;2023-09-18T02:05:07;99427.25;;;18.65;100.00
37848;BME280;23688;33.130;-117.188;2023-09-18T02:07:34;99422.88;;;18.67;100.00
37848;BME280;23688;33.130;-117.188;2023-09-18T02:10:01;99421.91;;;18.55;100.00
37848;BME280;23688;33.130;-117.188;2023-09-18T02:12:30;99431.53;;;18.55;100.00
37848;BME280;23688;33.130;-117.188;2023-09-18T02:14:56;99418.41;;;18.55;100.00
37848;BME280;23688;33.130;-117.188;2023-09-18T02:17:24;99423.66;;;18.58;100.00
37848;BME280;23688;33.130;-117.188;2023-09-18T02:19:51;99421.09;;;18.63;100.00
37848;BME280;23688;33.130;-117.188;2023-09-18T02:22:17;99424.56;;;18.60;100.00
37848;BME280;23688;33.130;-117.188;2023-09-18T02:24:45;99420.25;;;18.67;100.00
37848;BME280;23688;33.130;-117.188;2023-09-18T02:27:11;99420.34;;;18.76;100.00
37848;BME280;23688;33.130;-117.188;2023-09-18T02:29:37;99416.78;;;18.72;100.00
37848;BME280;23688;33.130;-117.188;2023-09-18T02:32:04;99423.16;;;19.03;100.00
37848;BME280;23688;33.130;-117.188;2023-09-18T02:34:31;99422.34;;;19.15;100.00
37848;BME280;23688;33.130;-117.188;2023-09-18T02:36:57;99412.69;;;19.10;100.00
37848;BME280;23688;33.130;-117.188;2023-09-18T02:39:24;99428.50;;;19.14;100.00
37848;BME280;23688;33.130;-117.188;2023-09-18T02:41:51;99422.34;;;19.18;100.00
37848;BME280;23688;33.130;-117.188;2023-09-18T02:44:17;99422.34;;;19.18;100.00
37848;BME280;23688;33.130;-117.188;2023-09-18T02:46:43;99427.72;;;19.34;100.00
37848;BME280;23688;33.130;-117.188;2023-09-18T02:49:10;99424.22;;;19.36;100.00
37848;BME280;23688;33.130;-117.188;2023-09-18T02:51:36;99436.50;;;19.39;100.00
37848;BME280;23688;33.130;-117.188;2023-09-18T02:54:03;99437.31;;;19.29;100.00
37848;BME280;23688;33.130;-117.188;2023-09-18T02:56:29;99434.69;;;19.27;100.00
37848;BME280;23688;33.130;-117.188;2023-09-18T02:58:55;99439.09;;;19.33;100.00
37848;BME280;23688;33.130;-117.188;2023-09-18T03:01:21;99433.84;;;19.34;100.00
37848;BME280;23688;33.130;-117.188;2023-09-18T03:03:48;99439.16;;;19.39;100.00
37848;BME280;23688;33.130;-117.188;2023-09-18T03:06:14;99434.72;;;19.32;100.00
37848;BME280;23688;33.130;-117.188;2023-09-18T03:08:41;99436.47;;;19.36;100.00
37848;BME280;23688;33.130;-117.188;2023-09-18T03:11:13;99441.81;;;19.43;100.00
37848;BME280;23688;33.130;-117.188;2023-09-18T03:13:48;99448.84;;;19.49;100.00
37848;BME280;23688;33.130;-117.188;2023-09-18T03:16:16;99436.56;;;19.57;100.00
37848;BME280;23688;33.130;-117.188;2023-09-18T03:18:42;99450.56;;;19.44;100.00
37848;BME280;23688;33.130;-117.188;2023-09-18T03:21:09;99446.03;;;19.12;100.00
37848;BME280;23688;33.130;-117.188;2023-09-18T03:23:35;99451.25;;;19.05;100.00
37848;BME280;23688;33.130;-117.188;2023-09-18T03:26:02;99453.88;;;19.06;100.00
37848;BME280;23688;33.130;-117.188;2023-09-18T03:28:28;99442.53;;;19.18;100.00
37848;BME280;23688;33.130;-117.188;2023-09-18T03:30:55;99458.44;;;19.41;100.00
37848;BME280;23688;33.130;-117.188;2023-09-18T03:33:21;99455.84;;;19.50;100.00
37848;BME280;23688;33.130;-117.188;2023-09-18T03:35:52;99457.66;;;19.59;100.00
37848;BME280;23688;33.130;-117.188;2023-09-18T03:38:20;99457.75;;;19.68;100.00
37848;BME280;23688;33.130;-117.188;2023-09-18T03:40:47;99451.59;;;19.71;100.00
37848;BME280;23688;33.130;-117.188;2023-09-18T03:43:13;99444.44;;;19.53;100.00
37848;BME280;23688;33.130;-117.188;2023-09-18T03:45:39;99455.00;;;19.51;100.00
37848;BME280;23688;33.130;-117.188;2023-09-18T03:48:09;99463.75;;;19.50;100.00
37848;BME280;23688;33.130;-117.188;2023-09-18T03:50:36;99469.94;;;19.60;100.00
37848;BME280;23688;33.130;-117.188;2023-09-18T03:53:03;99473.53;;;19.70;100.00
37848;BME280;23688;33.130;-117.188;2023-09-18T03:55:29;99477.97;;;19.75;100.00
37848;BME280;23688;33.130;-117.188;2023-09-18T03:57:56;99481.53;;;19.88;100.00
37848;BME280;23688;33.130;-117.188;2023-09-18T04:00:22;99463.94;;;19.87;100.00
37848;BME280;23688;33.130;-117.188;2023-09-18T04:02:51;99477.16;;;20.01;100.00
37848;BME280;23688;33.130;-117.188;2023-09-18T04:05:18;99468.38;;;20.00;100.00
37848;BME280;23688;33.130;-117.188;2023-09-18T04:07:44;99478.06;;;20.03;100.00
37848;BME280;23688;33.130;-117.188;2023-09-18T04:10:14;99470.09;;;19.97;100.00
37848;BME280;23688;33.130;-117.188;2023-09-18T04:12:49;99482.44;;;20.02;100.00
37848;BME280;23688;33.130;-117.188;2023-09-18T04:15:20;99479.78;;;20.01;100.00
37848;BME280;23688;33.130;-117.188;2023-09-18T04:17:48;99471.88;;;19.98;100.00
37848;BME280;23688;33.130;-117.188;2023-09-18T04:20:14;99482.41;;;19.93;100.00
37848;BME280;23688;33.130;-117.188;2023-09-18T04:22:46;99485.06;;;19.95;100.00
37848;BME280;23688;33.130;-117.188;2023-09-18T04:25:16;99486.78;;;19.94;100.00
37848;BME280;23688;33.130;-117.188;2023-09-18T04:27:45;99485.03;;;19.92;100.00
37848;BME280;23688;33.130;-117.188;2023-09-18T04:30:12;99493.81;;;19.91;100.00
37848;BME280;23688;33.130;-117.188;2023-09-18T04:32:40;99483.28;;;19.87;100.00
37848;BME280;23688;33.130;-117.188;2023-09-18T04:35:08;99499.06;;;19.83;100.00
37848;BME280;23688;33.130;-117.188;2023-09-18T04:37:41;99494.53;;;19.56;100.00
37848;BME280;23688;33.130;-117.188;2023-09-18T04:40:08;99490.06;;;19.42;100.00
37848;BME280;23688;33.130;-117.188;2023-09-18T04:42:39;99496.13;;;19.29;100.00
37848;BME280;23688;33.130;-117.188;2023-09-18T04:45:07;99478.53;;;19.22;100.00
37848;BME280;23688;33.130;-117.188;2023-09-18T04:47:34;99499.66;;;19.34;100.00
37848;BME280;23688;33.130;-117.188;2023-09-18T04:50:00;99493.47;;;19.26;100.00
37848;BME280;23688;33.130;-117.188;2023-09-18T04:52:31;99500.41;;;19.16;100.00
37848;BME280;23688;33.130;-117.188;2023-09-18T04:54:57;99501.22;;;19.03;100.00
37848;BME280;23688;33.130;-117.188;2023-09-18T04:57:24;99503.78;;;18.95;100.00
37848;BME280;23688;33.130;-117.188;2023-09-18T04:59:50;99499.50;;;19.11;100.00
37848;BME280;23688;33.130;-117.188;2023-09-18T05:02:16;99496.94;;;19.20;100.00
37848;BME280;23688;33.130;-117.188;2023-09-18T05:04:43;99498.75;;;19.31;100.00
37848;BME280;23688;33.130;-117.188;2023-09-18T05:07:09;99498.81;;;19.34;100.00
37848;BME280;23688;33.130;-117.188;2023-09-18T05:09:35;99505.00;;;19.46;100.00
37848;BME280;23688;33.130;-117.188;2023-09-18T05:12:04;99509.38;;;19.48;100.00
37848;BME280;23688;33.130;-117.188;2023-09-18T05:14:34;99490.03;;;19.39;100.00
37848;BME280;23688;33.130;-117.188;2023-09-18T05:17:02;99491.75;;;19.36;100.00
37848;BME280;23688;33.130;-117.188;2023-09-18T05:19:28;99496.97;;;19.22;100.00
37848;BME280;23688;33.130;-117.188;2023-09-18T05:21:54;99508.38;;;19.22;100.00
37848;BME280;23688;33.130;-117.188;2023-09-18T05:24:21;99511.09;;;19.36;100.00
37848;BME280;23688;33.130;-117.188;2023-09-18T05:26:52;99513.69;;;19.33;100.00
37848;BME280;23688;33.130;-117.188;2023-09-18T05:29:19;99510.19;;;19.33;100.00
37848;BME280;23688;33.130;-117.188;2023-09-18T05:31:46;99517.13;;;19.23;100.00
37848;BME280;23688;33.130;-117.188;2023-09-18T05:34:13;99511.03;;;19.30;100.00
37848;BME280;23688;33.130;-117.188;2023-09-18T05:36:39;99515.44;;;19.33;100.00
37848;BME280;23688;33.130;-117.188;2023-09-18T05:39:06;99513.66;;;19.27;100.00
37848;BME280;23688;33.130;-117.188;2023-09-18T05:41:39;99511.91;;;19.28;100.00
37848;BME280;23688;33.130;-117.188;2023-09-18T05:44:06;99513.72;;;19.35;100.00
37848;BME280;23688;33.130;-117.188;2023-09-18T05:46:36;99514.59;;;19.35;100.00
37848;BME280;23688;33.130;-117.188;2023-09-18T05:49:03;99512.88;;;19.42;100.00
37848;BME280;23688;33.130;-117.188;2023-09-18T05:51:31;99512.00;;;19.41;100.00
37848;BME280;23688;33.130;-117.188;2023-09-18T05:53:58;99510.28;;;19.50;100.00
37848;BME280;23688;33.130;-117.188;2023-09-18T05:56:25;99510.31;;;19.54;100.00
37848;BME280;23688;33.130;-117.188;2023-09-18T05:58:51;99505.03;;;19.51;100.00
37848;BME280;23688;33.130;-117.188;2023-09-18T06:01:18;99499.75;;;19.53;100.00
37848;BME280;23688;33.130;-117.188;2023-09-18T06:03:44;99513.84;;;19.59;100.00
37848;BME280;23688;33.130;-117.188;2023-09-18T06:06:11;99505.06;;;19.62;100.00
37848;BME280;23688;33.130;-117.188;2023-09-18T06:08:37;99498.03;;;19.53;100.00
37848;BME280;23688;33.130;-117.188;2023-09-18T06:11:04;99508.56;;;19.59;100.00
37848;BME280;23688;33.130;-117.188;2023-09-18T06:13:31;99506.78;;;19.55;100.00
37848;BME280;23688;33.130;-117.188;2023-09-18T06:15:57;99500.59;;;19.44;100.00
37848;BME280;23688;33.130;-117.188;2023-09-18T06:18:24;99491.84;;;19.46;100.00
37848;BME280;23688;33.130;-117.188;2023-09-18T06:20:51;99498.88;;;19.46;100.00
37848;BME280;23688;33.130;-117.188;2023-09-18T06:23:18;99490.00;;;19.35;100.00
37848;BME280;23688;33.130;-117.188;2023-09-18T06:25:45;99496.13;;;19.31;100.00
37848;BME280;23688;33.130;-117.188;2023-09-18T06:28:11;99495.22;;;19.25;100.00
37848;BME280;23688;33.130;-117.188;2023-09-18T06:30:38;99494.31;;;19.20;100.00
37848;BME280;23688;33.130;-117.188;2023-09-18T06:33:04;99489.03;;;19.19;100.00
37848;BME280;23688;33.130;-117.188;2023-09-18T06:35:31;99485.50;;;19.14;100.00
37848;BME280;23688;33.130;-117.188;2023-09-18T06:37:57;99494.22;;;19.07;100.00
37848;BME280;23688;33.130;-117.188;2023-09-18T06:40:25;99483.66;;;19.03;100.00
37848;BME280;23688;33.130;-117.188;2023-09-18T06:42:51;99480.88;;;18.80;100.00
37848;BME280;23688;33.130;-117.188;2023-09-18T06:45:23;99488.81;;;18.90;100.00
37848;BME280;23688;33.130;-117.188;2023-09-18T06:47:50;99495.13;;;19.07;100.00
37848;BME280;23688;33.130;-117.188;2023-09-18T06:50:16;99484.59;;;19.12;100.00
37848;BME280;23688;33.130;-117.188;2023-09-18T06:52:44;99488.13;;;19.12;100.00
37848;BME280;23688;33.130;-117.188;2023-09-18T06:55:10;99484.69;;;19.22;100.00
37848;BME280;23688;33.130;-117.188;2023-09-18T06:57:37;99475.88;;;19.19;100.00
37848;BME280;23688;33.130;-117.188;2023-09-18T07:00:04;99492.59;;;19.29;100.00
37848;BME280;23688;33.130;-117.188;2023-09-18T07:02:31;99493.50;;;19.32;100.00
37848;BME280;23688;33.130;-117.188;2023-09-18T07:04:57;99497.00;;;19.27;100.00
37848;BME280;23688;33.130;-117.188;2023-09-18T07:07:23;99499.59;;;19.22;100.00
37848;BME280;23688;33.130;-117.188;2023-09-18T07:09:51;99499.63;;;19.30;100.00
37848;BME280;23688;33.130;-117.188;2023-09-18T07:12:18;99497.91;;;19.32;100.00
37848;BME280;23688;33.130;-117.188;2023-09-18T07:14:48;99494.38;;;19.30;100.00
37848;BME280;23688;33.130;-117.188;2023-09-18T07:17:14;99490.84;;;19.28;100.00
37848;BME280;23688;33.130;-117.188;2023-09-18T07:19:41;99495.25;;;19.27;100.00
37848;BME280;23688;33.130;-117.188;2023-09-18T07:22:07;99498.72;;;19.26;100.00
37848;BME280;23688;33.130;-117.188;2023-09-18T07:24:33;99490.78;;;19.21;100.00
37848;BME280;23688;33.130;-117.188;2023-09-18T07:27:00;99504.03;;;19.29;100.00
37848;BME280;23688;33.130;-117.188;2023-09-18T07:29:26;99498.78;;;19.29;100.00
37848;BME280;23688;33.130;-117.188;2023-09-18T07:31:52;99498.75;;;19.31;100.00
37848;BME280;23688;33.130;-117.188;2023-09-18T07:34:19;99503.19;;;19.35;100.00
37848;BME280;23688;33.130;-117.188;2023-09-18T07:36:45;99500.53;;;19.33;100.00
37848;BME280;23688;33.130;-117.188;2023-09-18T07:39:11;99504.06;;;19.34;100.00
37848;BME280;23688;33.130;-117.188;2023-09-18T07:41:38;99491.75;;;19.33;100.00
37848;BME280;23688;33.130;-117.188;2023-09-18T07:44:05;99493.50;;;19.31;100.00
37848;BME280;23688;33.130;-117.188;2023-09-18T07:46:31;99497.84;;;19.29;100.00
37848;BME280;23688;33.130;-117.188;2023-09-18T07:48:57;99498.69;;;19.20;100.00
37848;BME280;23688;33.130;-117.188;2023-09-18T07:51:24;99494.22;;;19.08;100.00
37848;BME280;23688;33.130;-117.188;2023-09-18T07:53:50;99477.56;;;19.09;100.00
37848;BME280;23688;33.130;-117.188;2023-09-18T07:56:16;99492.47;;;19.07;100.00
37848;BME280;23688;33.130;-117.188;2023-09-18T07:58:44;99493.34;;;19.06;100.00
37848;BME280;23688;33.130;-117.188;2023-09-18T08:01:13;99494.25;;;19.11;100.00
37848;BME280;23688;33.130;-117.188;2023-09-18T08:03:42;99485.41;;;19.00;100.00
37848;BME280;23688;33.130;-117.188;2023-09-18T08:06:08;99479.28;;;19.04;100.00
37848;BME280;23688;33.130;-117.188;2023-09-18T08:08:36;99487.13;;;18.99;100.00
37848;BME280;23688;33.130;-117.188;2023-09-18T08:11:07;99496.81;;;19.00;100.00
37848;BME280;23688;33.130;-117.188;2023-09-18T08:13:37;99484.53;;;19.01;100.00
37848;BME280;23688;33.130;-117.188;2023-09-18T08:16:06;99490.69;;;19.06;100.00
37848;BME280;23688;33.130;-117.188;2023-09-18T08:18:33;99481.94;;;19.09;100.00
37848;BME280;23688;33.130;-117.188;2023-09-18T08:21:00;99472.31;;;19.08;100.00
37848;BME280;23688;33.130;-117.188;2023-09-18T08:23:27;99474.06;;;19.10;100.00
37848;BME280;23688;33.130;-117.188;2023-09-18T08:25:53;99469.69;;;19.11;100.00
37848;BME280;23688;33.130;-117.188;2023-09-18T08:28:23;99475.00;;;19.18;100.00
37848;BME280;23688;33.130;-117.188;2023-09-18T08:30:49;99474.13;;;19.21;100.00
37848;BME280;23688;33.130;-117.188;2023-09-18T08:33:16;99478.50;;;19.16;100.00
37848;BME280;23688;33.130;-117.188;2023-09-18T08:35:42;99472.31;;;19.14;100.00
37848;BME280;23688;33.130;-117.188;2023-09-18T08:38:10;99472.38;;;19.17;100.00
37848;BME280;23688;33.130;-117.188;2023-09-18T08:40:36;99463.56;;;19.13;100.00
37848;BME280;23688;33.130;-117.188;2023-09-18T08:43:03;99469.72;;;19.12;100.00
37848;BME280;23688;33.130;-117.188;2023-09-18T08:48:11;99465.31;;;19.13;100.00
37848;BME280;23688;33.130;-117.188;2023-09-18T08:50:39;99466.16;;;19.07;100.00
37848;BME280;23688;33.130;-117.188;2023-09-18T08:53:06;99459.09;;;18.98;100.00
37848;BME280;23688;33.130;-117.188;2023-09-18T08:55:35;99464.28;;;18.89;100.00
37848;BME280;23688;33.130;-117.188;2023-09-18T08:58:03;99465.06;;;18.79;100.00
37848;BME280;23688;33.130;-117.188;2023-09-18T09:00:30;99459.81;;;18.79;100.00
37848;BME280;23688;33.130;-117.188;2023-09-18T09:02:56;99470.38;;;18.80;100.00
37848;BME280;23688;33.130;-117.188;2023-09-18T09:05:23;99463.31;;;18.76;100.00
37848;BME280;23688;33.130;-117.188;2023-09-18T09:07:52;99463.34;;;18.81;100.00
37848;BME280;23688;33.130;-117.188;2023-09-18T09:10:20;99453.56;;;18.69;100.00
37848;BME280;23688;33.130;-117.188;2023-09-18T09:12:55;99458.94;;;18.78;100.00
37848;BME280;23688;33.130;-117.188;2023-09-18T09:15:26;99461.56;;;18.80;100.00
37848;BME280;23688;33.130;-117.188;2023-09-18T09:18:05;99456.34;;;18.83;100.00
37848;BME280;23688;33.130;-117.188;2023-09-18T09:20:33;99458.97;;;18.81;100.00
37848;BME280;23688;33.130;-117.188;2023-09-18T09:23:05;99434.28;;;18.70;100.00
37848;BME280;23688;33.130;-117.188;2023-09-18T09:25:35;99448.38;;;18.75;100.00
37848;BME280;23688;33.130;-117.188;2023-09-18T09:28:05;99446.72;;;18.90;100.00
37848;BME280;23688;33.130;-117.188;2023-09-18T09:30:34;99450.22;;;18.83;100.00
37848;BME280;23688;33.130;-117.188;2023-09-18T09:33:05;99454.63;;;18.88;100.00
37848;BME280;23688;33.130;-117.188;2023-09-18T09:35:37;99453.69;;;18.81;100.00
37848;BME280;23688;33.130;-117.188;2023-09-18T09:38:11;99453.53;;;18.65;100.00
37848;BME280;23688;33.130;-117.188;2023-09-18T09:40:43;99455.22;;;18.58;100.00
37848;BME280;23688;33.130;-117.188;2023-09-18T09:43:13;99456.97;;;18.57;100.00
37848;BME280;23688;33.130;-117.188;2023-09-18T09:45:41;99444.59;;;18.43;100.00
37848;BME280;23688;33.130;-117.188;2023-09-18T09:48:08;99457.84;;;18.58;100.00
37848;BME280;23688;33.130;-117.188;2023-09-18T09:50:44;99463.97;;;18.54;100.00
37848;BME280;23688;33.130;-117.188;2023-09-18T09:53:14;99461.28;;;18.46;100.00
37848;BME280;23688;33.130;-117.188;2023-09-18T09:55:41;99452.47;;;18.41;100.00
37848;BME280;23688;33.130;-117.188;2023-09-18T09:58:08;99454.13;;;18.30;100.00
37848;BME280;23688;33.130;-117.188;2023-09-18T10:00:43;99452.38;;;18.32;100.00
37848;BME280;23688;33.130;-117.188;2023-09-18T10:03:16;99434.00;;;18.35;100.00
37848;BME280;23688;33.130;-117.188;2023-09-18T10:05:44;99454.34;;;18.54;100.00
37848;BME280;23688;33.130;-117.188;2023-09-18T10:08:23;99454.38;;;18.59;100.00
37848;BME280;23688;33.130;-117.188;2023-09-18T10:10:54;99452.56;;;18.52;100.00
37848;BME280;23688;33.130;-117.188;2023-09-18T10:13:29;99453.47;;;18.57;100.00
37848;BME280;23688;33.130;-117.188;2023-09-18T10:15:59;99461.44;;;18.68;100.00
37848;BME280;23688;33.130;-117.188;2023-09-18T10:18:52;99454.47;;;18.68;100.00
37848;BME280;23688;33.130;-117.188;2023-09-18T10:21:39;99448.44;;;18.78;100.00
37848;BME280;23688;33.130;-117.188;2023-09-18T10:24:24;99454.59;;;18.87;100.00
37848;BME280;23688;33.130;-117.188;2023-09-18T10:26:55;99444.97;;;18.89;100.00
37848;BME280;23688;33.130;-117.188;2023-09-18T10:29:23;99449.41;;;18.96;100.00
37848;BME280;23688;33.130;-117.188;2023-09-18T10:31:51;99450.31;;;18.99;100.00
37848;BME280;23688;33.130;-117.188;2023-09-18T10:34:19;99441.53;;;18.99;100.00
37848;BME280;23688;33.130;-117.188;2023-09-18T10:36:51;99451.22;;;19.00;100.00
37848;BME280;23688;33.130;-117.188;2023-09-18T10:39:18;99450.31;;;19.01;100.00
37848;BME280;23688;33.130;-117.188;2023-09-18T10:41:54;99447.72;;;19.04;100.00
37848;BME280;23688;33.130;-117.188;2023-09-18T10:44:23;99450.38;;;19.07;100.00
37848;BME280;23688;33.130;-117.188;2023-09-18T10:46:51;99447.75;;;19.10;100.00
37848;BME280;23688;33.130;-117.188;2023-09-18T10:49:19;99447.78;;;19.13;100.00
37848;BME280;23688;33.130;-117.188;2023-09-18T10:51:49;99445.13;;;19.13;100.00
37848;BME280;23688;33.130;-117.188;2023-09-18T10:54:23;99437.22;;;19.12;100.00
37848;BME280;23688;33.130;-117.188;2023-09-18T10:56:51;99435.44;;;19.06;100.00
37848;BME280;23688;33.130;-117.188;2023-09-18T10:59:18;99439.84;;;19.09;100.00
37848;BME280;23688;33.130;-117.188;2023-09-18T11:01:44;99446.88;;;19.11;100.00
37848;BME280;23688;33.130;-117.188;2023-09-18T11:04:17;99431.09;;;19.10;100.00
37848;BME280;23688;33.130;-117.188;2023-09-18T11:09:27;99444.28;;;19.16;100.00
37848;BME280;23688;33.130;-117.188;2023-09-18T11:17:33;99452.22;;;19.23;100.00
37848;BME280;23688;33.130;-117.188;2023-09-18T11:25:36;99435.50;;;19.18;100.00
37848;BME280;23688;33.130;-117.188;2023-09-18T11:28:22;99424.94;;;19.08;100.00
37848;BME280;23688;33.130;-117.188;2023-09-18T11:30:55;99439.00;;;19.13;100.00
37848;BME280;23688;33.130;-117.188;2023-09-18T11:33:33;99429.31;;;19.06;100.00
37848;BME280;23688;33.130;-117.188;2023-09-18T11:36:11;99436.34;;;19.11;100.00
37848;BME280;23688;33.130;-117.188;2023-09-18T11:38:56;99440.75;;;19.11;100.00
37848;BME280;23688;33.130;-117.188;2023-09-18T11:41:26;99449.50;;;19.08;100.00
37848;BME280;23688;33.130;-117.188;2023-09-18T11:46:47;99449.53;;;19.10;100.00
37848;BME280;23688;33.130;-117.188;2023-09-18T11:49:24;99449.50;;;19.08;100.00
37848;BME280;23688;33.130;-117.188;2023-09-18T11:51:54;99452.13;;;19.11;100.00
37848;BME280;23688;33.130;-117.188;2023-09-18T11:54:24;99449.53;;;19.10;100.00
37848;BME280;23688;33.130;-117.188;2023-09-18T11:56:50;99442.44;;;19.02;100.00
37848;BME280;23688;33.130;-117.188;2023-09-18T11:59:17;99442.44;;;19.01;100.00
37848;BME280;23688;33.130;-117.188;2023-09-18T12:01:53;99460.06;;;19.13;100.00
37848;BME280;23688;33.130;-117.188;2023-09-18T12:04:27;99451.25;;;19.08;100.00
37848;BME280;23688;33.130;-117.188;2023-09-18T12:06:55;99456.53;;;19.14;100.00
37848;BME280;23688;33.130;-117.188;2023-09-18T12:09:21;99448.66;;;19.15;100.00
37848;BME280;23688;33.130;-117.188;2023-09-18T12:11:48;99455.72;;;19.19;100.00
37848;BME280;23688;33.130;-117.188;2023-09-18T12:14:19;99461.00;;;19.22;100.00
37848;BME280;23688;33.130;-117.188;2023-09-18T12:16:46;99450.44;;;19.19;100.00
37848;BME280;23688;33.130;-117.188;2023-09-18T12:19:18;99449.56;;;19.17;100.00
37848;BME280;23688;33.130;-117.188;2023-09-18T12:21:48;99458.34;;;19.19;100.00
37848;BME280;23688;33.130;-117.188;2023-09-18T12:24:24;99452.19;;;19.17;100.00
37848;BME280;23688;33.130;-117.188;2023-09-18T12:26:53;99461.00;;;19.22;100.00
37848;BME280;23688;33.130;-117.188;2023-09-18T12:29:21;99455.72;;;19.22;100.00
37848;BME280;23688;33.130;-117.188;2023-09-18T12:31:48;99456.56;;;19.18;100.00
37848;BME280;23688;33.130;-117.188;2023-09-18T12:34:19;99467.13;;;19.23;100.00
37848;BME280;23688;33.130;-117.188;2023-09-18T12:36:50;99460.97;;;19.19;100.00
37848;BME280;23688;33.130;-117.188;2023-09-18T12:39:17;99462.78;;;19.27;100.00
37848;BME280;23688;33.130;-117.188;2023-09-18T12:41:47;99447.78;;;19.16;100.00
37848;BME280;23688;33.130;-117.188;2023-09-18T12:44:14;99463.66;;;19.24;100.00
37848;BME280;23688;33.130;-117.188;2023-09-18T12:46:43;99454.84;;;19.22;100.00